createdAt,value
2022-12-18T00:02:24.674Z,20.05
2022-12-18T00:04:58.211Z,18.27
2022-12-18T00:07:29.166Z,17.38
2022-12-18T00:09:58.984Z,18.00
2022-12-18T00:12:30.305Z,18.67
2022-12-18T00:15:02.304Z,17.27
2022-12-18T00:17:42.460Z,16.92
2022-12-18T00:20:22.779Z,15.45
2022-12-18T00:22:55.807Z,13.55
2022-12-18T00:25:29.712Z,14.73
2022-12-18T00:28:05.716Z,15.65
2022-12-18T00:30:35.583Z,16.15
2022-12-18T00:33:09.733Z,17.10
2022-12-18T00:35:43.175Z,17.02
2022-12-18T00:38:16.759Z,14.50
2022-12-18T00:40:52.761Z,15.05
2022-12-18T00:43:22.022Z,14.00
2022-12-18T00:45:53.936Z,13.35
2022-12-18T00:48:26.316Z,13.65
2022-12-18T00:51:05.091Z,14.75
2022-12-18T00:53:36.301Z,14.02
2022-12-18T00:56:06.595Z,12.35
2022-12-18T00:58:40.724Z,12.48
2022-12-18T01:01:12.105Z,13.38
2022-12-18T01:03:46.220Z,13.93
2022-12-18T01:06:19.635Z,13.90
2022-12-18T01:08:50.089Z,14.27
2022-12-18T01:11:23.140Z,13.55
2022-12-18T01:13:53.078Z,12.73
2022-12-18T01:16:26.440Z,12.23
2022-12-18T01:18:57.379Z,13.45
2022-12-18T01:21:29.759Z,12.30
2022-12-18T01:24:01.083Z,12.68
2022-12-18T01:26:31.380Z,12.20
2022-12-18T01:29:01.805Z,13.20
2022-12-18T01:31:35.571Z,13.80
2022-12-18T01:34:06.896Z,13.88
2022-12-18T01:36:42.540Z,15.10
2022-12-18T01:39:16.097Z,14.07
2022-12-18T01:41:58.735Z,14.40
2022-12-18T01:45:04.330Z,14.75
2022-12-18T01:47:40.095Z,13.57
2022-12-18T01:50:14.444Z,14.05
2022-12-18T01:52:50.657Z,15.38
2022-12-18T01:55:22.897Z,13.85
2022-12-18T01:57:56.164Z,12.60
2022-12-18T02:00:27.495Z,13.02
2022-12-18T02:02:58.164Z,12.77
2022-12-18T02:05:38.362Z,23.42
2022-12-18T02:08:17.527Z,23.98
2022-12-18T02:10:57.112Z,17.05
2022-12-18T02:13:35.122Z,12.73
2022-12-18T02:16:12.519Z,12.95
2022-12-18T02:18:49.023Z,14.20
2022-12-18T02:21:31.452Z,13.68
2022-12-18T02:24:17.472Z,13.63
2022-12-18T02:26:54.098Z,16.58
2022-12-18T02:29:29.944Z,18.95
2022-12-18T02:32:03.002Z,15.98
2022-12-18T02:34:36.623Z,12.45
2022-12-18T02:37:10.883Z,12.20
2022-12-18T02:39:44.125Z,12.88
2022-12-18T02:42:20.032Z,11.68
2022-12-18T02:44:54.341Z,11.93
2022-12-18T02:47:30.929Z,12.18
2022-12-18T02:50:11.402Z,11.10
2022-12-18T02:52:49.634Z,10.43
2022-12-18T02:55:31.184Z,11.02
2022-12-18T02:58:16.443Z,11.00
2022-12-18T03:00:54.272Z,11.13
2022-12-18T03:03:31.274Z,10.77
2022-12-18T03:06:05.569Z,9.27
2022-12-18T03:08:41.166Z,9.77
2022-12-18T03:11:13.253Z,9.15
2022-12-18T03:13:51.575Z,9.82
2022-12-18T03:16:26.339Z,11.38
2022-12-18T03:19:01.666Z,9.10
2022-12-18T03:21:36.607Z,9.90
2022-12-18T03:24:09.822Z,9.80
2022-12-18T03:26:42.923Z,9.80
2022-12-18T03:29:21.548Z,9.32
2022-12-18T03:31:57.152Z,9.80
2022-12-18T03:34:32.410Z,10.40
2022-12-18T03:37:05.958Z,10.10
2022-12-18T03:39:36.649Z,9.27
2022-12-18T03:42:14.526Z,9.05
2022-12-18T03:44:59.760Z,9.52
2022-12-18T03:47:34.410Z,9.48
2022-12-18T03:50:12.981Z,9.65
2022-12-18T03:52:51.008Z,8.73
2022-12-18T03:55:23.472Z,8.32
2022-12-18T03:58:01.306Z,9.07
2022-12-18T04:00:41.672Z,8.30
2022-12-18T04:03:14.152Z,8.50
2022-12-18T04:05:50.185Z,8.70
2022-12-18T04:08:22.783Z,8.45
2022-12-18T04:11:03.168Z,8.60
2022-12-18T04:13:38.556Z,7.88
2022-12-18T04:16:14.909Z,8.93
2022-12-18T04:18:46.921Z,8.25
2022-12-18T04:21:18.287Z,9.40
2022-12-18T04:23:50.409Z,8.82
2022-12-18T04:26:22.919Z,8.13
2022-12-18T04:29:19.019Z,7.97
2022-12-18T04:31:51.991Z,7.93
2022-12-18T04:34:22.492Z,8.05
2022-12-18T04:36:55.806Z,7.72
2022-12-18T04:39:26.680Z,8.15
2022-12-18T04:41:59.370Z,7.60
2022-12-18T04:44:29.090Z,8.90
2022-12-18T04:47:01.476Z,8.00
2022-12-18T04:49:31.241Z,7.85
2022-12-18T04:52:01.089Z,8.13
2022-12-18T04:54:31.612Z,8.90
2022-12-18T04:57:01.412Z,8.23
2022-12-18T04:59:31.475Z,9.07
2022-12-18T05:02:03.886Z,7.90
2022-12-18T05:04:33.760Z,8.00
2022-12-18T05:07:03.675Z,7.40
2022-12-18T05:09:33.643Z,9.02
2022-12-18T05:12:03.380Z,9.00
2022-12-18T05:14:33.161Z,8.00
2022-12-18T05:17:05.610Z,8.65
2022-12-18T05:19:35.543Z,7.95
2022-12-18T05:22:05.294Z,8.05
2022-12-18T05:24:35.107Z,8.63
2022-12-18T05:27:04.915Z,8.00
2022-12-18T05:29:34.776Z,7.75
2022-12-18T05:32:07.642Z,9.25
2022-12-18T05:34:37.422Z,8.60
2022-12-18T05:37:07.121Z,7.75
2022-12-18T05:39:36.878Z,7.85
2022-12-18T05:42:06.842Z,7.20
2022-12-18T05:44:36.645Z,8.10
2022-12-18T05:47:08.987Z,8.30
2022-12-18T05:49:38.848Z,7.75
2022-12-18T05:52:08.699Z,7.15
2022-12-18T05:54:38.566Z,7.40
2022-12-18T05:57:08.371Z,7.70
2022-12-18T05:59:38.451Z,7.53
2022-12-18T06:02:10.956Z,8.05
2022-12-18T06:04:40.793Z,8.82
2022-12-18T06:07:10.587Z,8.52
2022-12-18T06:09:40.387Z,7.63
2022-12-18T06:12:10.724Z,7.78
2022-12-18T06:14:40.499Z,8.45
2022-12-18T06:17:12.882Z,7.45
2022-12-18T06:19:42.626Z,8.00
2022-12-18T06:22:12.376Z,7.05
2022-12-18T06:24:42.113Z,7.97
2022-12-18T06:27:11.868Z,6.55
2022-12-18T06:29:41.642Z,7.53
2022-12-18T06:32:14.027Z,6.78
2022-12-18T06:34:44.736Z,7.03
2022-12-18T06:37:14.523Z,6.50
2022-12-18T06:39:44.327Z,6.50
2022-12-18T06:42:14.074Z,6.90
2022-12-18T06:44:43.841Z,7.22
2022-12-18T06:47:16.220Z,7.55
2022-12-18T06:49:46.636Z,6.20
2022-12-18T06:52:16.397Z,6.60
2022-12-18T06:54:46.158Z,7.25
2022-12-18T06:57:15.918Z,6.28
2022-12-18T06:59:45.917Z,6.65
2022-12-18T07:02:18.626Z,6.65
2022-12-18T07:04:48.468Z,7.03
2022-12-18T07:07:18.234Z,6.75
2022-12-18T07:09:48.031Z,7.13
2022-12-18T07:12:17.801Z,7.80
2022-12-18T07:14:47.975Z,7.95
2022-12-18T07:17:20.368Z,7.15
2022-12-18T07:19:50.155Z,7.97
2022-12-18T07:22:19.939Z,7.80
2022-12-18T07:24:50.056Z,7.82
2022-12-18T07:27:19.847Z,7.82
2022-12-18T07:29:49.595Z,7.65
2022-12-18T07:32:24.065Z,7.32
2022-12-18T07:34:54.054Z,7.85
2022-12-18T07:37:27.851Z,7.25
2022-12-18T07:39:58.057Z,8.23
2022-12-18T07:42:35.889Z,7.70
2022-12-18T07:45:06.983Z,8.77
2022-12-18T07:47:42.255Z,8.50
2022-12-18T07:50:12.538Z,9.60
2022-12-18T07:52:47.696Z,10.50
2022-12-18T07:55:21.744Z,9.20
2022-12-18T07:57:56.417Z,10.90
2022-12-18T08:00:32.784Z,9.73
2022-12-18T08:03:08.388Z,9.35
2022-12-18T08:05:38.291Z,9.10
2022-12-18T08:08:08.550Z,9.02
2022-12-18T08:10:42.370Z,8.75
2022-12-18T08:13:12.276Z,9.30
2022-12-18T08:15:42.033Z,8.73
2022-12-18T08:18:18.470Z,8.50
2022-12-18T08:20:48.389Z,7.93
2022-12-18T08:23:26.494Z,9.30
2022-12-18T08:25:58.428Z,20.60
2022-12-18T08:28:28.303Z,36.45
2022-12-18T08:30:58.295Z,17.10
2022-12-18T08:33:36.044Z,12.73
2022-12-18T08:36:06.904Z,9.80
2022-12-18T08:38:39.846Z,10.00
2022-12-18T08:41:16.474Z,9.50
2022-12-18T08:44:02.655Z,10.02
2022-12-18T08:46:37.861Z,10.65
2022-12-18T08:49:13.918Z,11.60
2022-12-18T08:51:44.285Z,12.07
2022-12-18T08:54:16.514Z,11.70
2022-12-18T08:56:50.624Z,11.55
2022-12-18T08:59:20.781Z,11.57
2022-12-18T09:01:51.867Z,12.68
2022-12-18T09:04:26.600Z,12.43
2022-12-18T09:07:00.173Z,12.65
2022-12-18T09:09:29.948Z,12.20
2022-12-18T09:12:01.127Z,11.82
2022-12-18T09:14:39.226Z,11.57
2022-12-18T09:17:09.062Z,12.00
2022-12-18T09:19:41.516Z,12.18
2022-12-18T09:22:14.791Z,12.35
2022-12-18T09:24:47.749Z,13.55
2022-12-18T09:27:20.744Z,12.57
2022-12-18T09:29:52.515Z,10.43
2022-12-18T09:32:23.407Z,8.57
2022-12-18T09:34:59.747Z,9.50
2022-12-18T09:37:32.786Z,8.52
2022-12-18T09:40:02.622Z,5.55
2022-12-18T09:42:36.923Z,5.15
2022-12-18T09:45:08.677Z,4.28
2022-12-18T09:47:41.469Z,4.30
2022-12-18T09:50:28.165Z,3.70
2022-12-18T09:53:08.794Z,4.20
2022-12-18T09:55:43.526Z,3.95
2022-12-18T09:58:20.668Z,4.00
2022-12-18T10:00:50.856Z,3.17
2022-12-18T10:03:21.753Z,2.90
2022-12-18T10:06:02.872Z,2.67
2022-12-18T10:08:45.862Z,3.25
2022-12-18T10:11:29.424Z,2.90
2022-12-18T10:14:12.719Z,2.90
2022-12-18T10:16:56.918Z,2.92
2022-12-18T10:19:41.026Z,2.80
2022-12-18T10:22:25.680Z,3.28
2022-12-18T10:25:05.493Z,3.30
2022-12-18T10:27:36.672Z,3.47
2022-12-18T10:30:16.673Z,4.20
2022-12-18T10:32:46.720Z,3.63
2022-12-18T10:35:22.801Z,3.00
2022-12-18T10:38:10.311Z,2.40
2022-12-18T10:40:53.773Z,3.10
2022-12-18T10:43:27.562Z,3.10
2022-12-18T10:46:22.495Z,2.40
2022-12-18T10:48:58.690Z,3.28
2022-12-18T10:51:32.467Z,3.45
2022-12-18T10:54:08.682Z,2.83
2022-12-18T10:56:40.652Z,2.78
2022-12-18T10:59:15.906Z,2.95
2022-12-18T11:01:57.063Z,9.95
2022-12-18T11:04:28.786Z,4.22
2022-12-18T11:07:04.309Z,3.33
2022-12-18T11:09:38.790Z,3.33
2022-12-18T11:12:19.525Z,3.40
2022-12-18T11:14:51.900Z,3.50
2022-12-18T11:17:26.280Z,3.55
2022-12-18T11:20:04.865Z,3.00
2022-12-18T11:22:37.539Z,2.85
2022-12-18T11:25:32.271Z,3.35
2022-12-18T11:28:09.815Z,3.25
2022-12-18T11:30:41.256Z,3.00
2022-12-18T11:33:18.512Z,2.90
2022-12-18T11:35:54.538Z,3.10
2022-12-18T11:38:30.461Z,3.00
2022-12-18T11:41:06.742Z,4.20
2022-12-18T11:43:45.037Z,4.00
2022-12-18T11:46:19.971Z,4.07
2022-12-18T11:49:03.048Z,3.20
2022-12-18T11:51:39.152Z,3.67
2022-12-18T11:54:17.484Z,4.40
2022-12-18T11:56:57.477Z,4.13
2022-12-18T11:59:37.818Z,4.70
2022-12-18T12:02:33.670Z,5.15
2022-12-18T12:05:24.382Z,4.88
2022-12-18T12:08:00.844Z,5.07
2022-12-18T12:10:45.815Z,5.22
2022-12-18T12:13:45.478Z,5.10
2022-12-18T12:16:25.213Z,5.15
2022-12-18T12:19:07.375Z,6.60
2022-12-18T12:21:44.324Z,5.05
2022-12-18T12:24:30.595Z,5.63
2022-12-18T12:27:13.353Z,5.82
2022-12-18T12:30:02.101Z,6.35
2022-12-18T12:32:49.360Z,5.88
2022-12-18T12:35:31.738Z,6.05
2022-12-18T12:38:11.958Z,8.65
2022-12-18T12:40:55.333Z,6.45
2022-12-18T12:43:35.127Z,5.43
2022-12-18T12:46:13.931Z,5.28
2022-12-18T12:48:49.193Z,5.97
2022-12-18T12:51:23.330Z,5.25
2022-12-18T12:53:53.432Z,5.25
2022-12-18T12:56:24.992Z,4.75
2022-12-18T12:59:05.972Z,5.10
2022-12-18T13:01:51.418Z,5.50
2022-12-18T13:04:31.566Z,4.90
2022-12-18T13:07:09.019Z,5.97
2022-12-18T13:10:17.482Z,5.75
2022-12-18T13:12:57.883Z,4.43
2022-12-18T13:15:36.856Z,5.20
2022-12-18T13:18:30.111Z,4.80
2022-12-18T13:21:11.899Z,4.80
2022-12-18T13:23:42.286Z,6.22
2022-12-18T13:26:36.923Z,8.45
2022-12-18T13:29:09.804Z,4.83
2022-12-18T13:32:09.615Z,4.10
2022-12-18T13:34:41.993Z,4.40
2022-12-18T13:37:46.039Z,4.28
2022-12-18T13:41:01.074Z,6.27
2022-12-18T13:43:34.916Z,6.47
2022-12-18T13:46:20.884Z,7.90
2022-12-18T13:48:55.921Z,6.18
2022-12-18T13:51:29.551Z,5.97
2022-12-18T13:54:02.692Z,4.80
2022-12-18T13:59:38.446Z,3.90
2022-12-18T14:02:18.087Z,4.07
2022-12-18T14:04:50.036Z,5.15
2022-12-18T14:07:24.651Z,5.40
2022-12-18T14:10:06.439Z,5.15
2022-12-18T14:13:03.119Z,4.78
2022-12-18T14:15:38.530Z,5.20
2022-12-18T14:18:23.492Z,5.97
2022-12-18T14:20:55.056Z,7.35
2022-12-18T14:23:40.235Z,4.75
2022-12-18T14:26:26.412Z,4.78
2022-12-18T14:29:02.092Z,4.20
2022-12-18T14:31:35.812Z,7.47
2022-12-18T14:34:05.702Z,4.50
2022-12-18T14:36:35.559Z,3.95
2022-12-18T14:39:08.990Z,8.15
2022-12-18T14:41:38.869Z,32.20
2022-12-18T14:44:15.060Z,9.13
2022-12-18T14:46:47.489Z,6.38
2022-12-18T14:49:25.408Z,4.28
2022-12-18T14:51:58.675Z,4.75
2022-12-18T14:54:33.315Z,9.05
2022-12-18T14:57:09.715Z,5.63
2022-12-18T14:59:40.476Z,5.90
2022-12-18T15:02:22.381Z,5.63
2022-12-18T15:05:09.818Z,7.80
2022-12-18T15:07:47.327Z,4.57
2022-12-18T15:10:23.386Z,5.95
2022-12-18T15:13:09.520Z,18.58
2022-12-18T15:15:50.523Z,24.77
2022-12-18T15:18:22.730Z,19.67
2022-12-18T15:20:58.007Z,7.88
2022-12-18T15:23:30.283Z,8.20
2022-12-18T15:26:04.406Z,5.67
2022-12-18T15:28:39.060Z,8.73
2022-12-18T15:31:26.205Z,10.75
2022-12-18T15:34:21.924Z,12.07
2022-12-18T15:36:54.397Z,7.72
2022-12-18T15:39:24.626Z,6.07
2022-12-18T15:42:11.644Z,5.03
2022-12-18T15:44:41.765Z,5.30
2022-12-18T15:47:15.932Z,5.35
2022-12-18T15:49:46.978Z,5.65
2022-12-18T15:52:27.125Z,5.80
2022-12-18T15:55:09.692Z,4.90
2022-12-18T15:57:42.060Z,5.10
2022-12-18T16:00:16.360Z,4.85
2022-12-18T16:02:48.199Z,7.50
2022-12-18T16:05:21.194Z,8.50
2022-12-18T16:07:51.497Z,6.22
2022-12-18T16:10:21.467Z,5.25
2022-12-18T16:12:54.207Z,5.00
2022-12-18T16:15:24.960Z,8.32
2022-12-18T16:17:55.523Z,9.82
2022-12-18T16:20:26.475Z,5.15
2022-12-18T16:22:58.294Z,4.68
2022-12-18T16:25:30.310Z,6.20
2022-12-18T16:28:04.760Z,7.15
2022-12-18T16:30:40.587Z,5.03
2022-12-18T16:33:13.809Z,4.70
2022-12-18T16:35:44.627Z,4.60
2022-12-18T16:38:14.593Z,3.80
2022-12-18T16:41:05.589Z,4.78
2022-12-18T16:43:41.604Z,4.43
2022-12-18T16:46:12.906Z,4.20
2022-12-18T16:48:42.723Z,5.10
2022-12-18T16:51:12.679Z,7.57
2022-12-18T16:53:44.302Z,6.25
2022-12-18T16:56:14.832Z,8.52
2022-12-18T16:58:47.291Z,6.18
2022-12-18T17:01:20.940Z,4.70
2022-12-18T17:03:56.722Z,5.23
2022-12-18T17:06:27.507Z,4.85
2022-12-18T17:08:58.900Z,6.07
2022-12-18T17:11:30.751Z,6.68
2022-12-18T17:14:08.448Z,5.65
2022-12-18T17:16:42.291Z,3.90
2022-12-18T17:19:17.109Z,4.32
2022-12-18T17:21:48.289Z,12.30
2022-12-18T17:24:18.453Z,6.90
2022-12-18T17:26:51.412Z,14.90
2022-12-18T17:29:25.893Z,10.40
2022-12-18T17:31:56.308Z,5.88
2022-12-18T17:34:31.093Z,7.03
2022-12-18T17:37:04.912Z,6.03
2022-12-18T17:39:34.782Z,4.97
2022-12-18T17:42:05.300Z,4.30
2022-12-18T17:44:38.229Z,4.80
2022-12-18T17:47:10.155Z,5.03
2022-12-18T17:49:40.126Z,5.93
2022-12-18T17:52:10.354Z,5.47
2022-12-18T17:54:42.353Z,4.13
2022-12-18T17:57:12.358Z,4.38
2022-12-18T17:59:48.469Z,5.18
2022-12-18T18:02:18.349Z,4.47
2022-12-18T18:04:49.200Z,4.90
2022-12-18T18:07:19.111Z,11.38
2022-12-18T18:09:48.923Z,30.93
2022-12-18T18:12:31.243Z,11.13
2022-12-18T18:15:03.779Z,5.87
2022-12-18T18:17:35.670Z,8.77
2022-12-18T18:20:07.803Z,21.15
2022-12-18T18:22:38.818Z,5.73
2022-12-18T18:25:12.456Z,4.35
2022-12-18T18:27:44.129Z,9.00
2022-12-18T18:30:19.548Z,6.25
2022-12-18T18:32:56.596Z,8.10
2022-12-18T18:35:53.400Z,5.45
2022-12-18T18:38:24.027Z,5.17
2022-12-18T18:41:01.070Z,5.33
2022-12-18T18:43:31.825Z,6.20
2022-12-18T18:46:06.184Z,7.50
2022-12-18T18:48:41.752Z,11.47
2022-12-18T18:51:20.852Z,7.47
2022-12-18T18:53:53.981Z,5.77
2022-12-18T18:59:18.629Z,5.03
2022-12-18T19:01:52.806Z,5.20
2022-12-18T19:04:23.845Z,5.30
2022-12-18T19:06:53.759Z,19.90
2022-12-18T19:09:24.523Z,62.58
2022-12-18T19:12:07.850Z,32.53
2022-12-18T19:14:37.785Z,21.80
2022-12-18T19:17:10.380Z,7.83
2022-12-18T19:19:42.968Z,5.20
2022-12-18T19:22:14.196Z,6.03
2022-12-18T19:24:44.080Z,6.17
2022-12-18T19:27:13.928Z,6.00
2022-12-18T19:29:46.858Z,6.60
2022-12-18T19:32:20.321Z,6.10
2022-12-18T19:34:50.248Z,6.00
2022-12-18T19:37:20.476Z,6.13
2022-12-18T19:39:50.326Z,5.90
2022-12-18T19:42:29.280Z,6.47
2022-12-18T19:45:05.011Z,7.00
2022-12-18T19:47:38.415Z,6.70
2022-12-18T19:50:14.849Z,5.97
2022-12-18T19:52:44.842Z,7.00
2022-12-18T19:55:18.131Z,6.67
2022-12-18T19:57:48.874Z,7.40
2022-12-18T20:00:21.134Z,7.60
2022-12-18T20:03:00.114Z,6.83
2022-12-18T20:05:33.786Z,8.73
2022-12-18T20:08:05.623Z,8.57
2022-12-18T20:10:36.737Z,7.60
2022-12-18T20:13:07.554Z,8.43
2022-12-18T20:15:40.509Z,8.27
2022-12-18T20:18:24.300Z,8.60
2022-12-18T20:20:55.193Z,9.00
2022-12-18T20:23:27.811Z,8.60
2022-12-18T20:25:58.622Z,9.93
2022-12-18T20:28:28.898Z,9.95
2022-12-18T20:31:03.006Z,8.93
2022-12-18T20:33:35.579Z,8.77
2022-12-18T20:36:09.520Z,11.32
2022-12-18T20:38:40.804Z,9.00
2022-12-18T20:41:14.321Z,10.60
2022-12-18T20:43:47.979Z,9.57
2022-12-18T20:46:19.600Z,9.95
2022-12-18T20:48:52.014Z,10.55
2022-12-18T20:51:26.799Z,10.83
2022-12-18T20:53:59.708Z,10.65
2022-12-18T20:56:33.351Z,10.37
2022-12-18T20:59:05.203Z,11.40
2022-12-18T21:01:36.143Z,11.97
2022-12-18T21:04:12.479Z,10.85
2022-12-18T21:06:49.382Z,11.87
2022-12-18T21:09:21.988Z,11.93
2022-12-18T21:12:04.601Z,11.68
2022-12-18T21:14:35.403Z,13.77
2022-12-18T21:17:05.286Z,11.27
2022-12-18T21:19:39.199Z,12.80
2022-12-18T21:22:16.050Z,13.95
2022-12-18T21:24:45.829Z,16.40
2022-12-18T21:27:17.618Z,13.03
2022-12-18T21:29:48.105Z,13.30
2022-12-18T21:32:20.877Z,28.00
2022-12-18T21:34:54.684Z,13.93
2022-12-18T21:37:28.159Z,12.43
2022-12-18T21:39:58.018Z,13.87
2022-12-18T21:42:40.485Z,13.63
2022-12-18T21:45:14.978Z,19.27
2022-12-18T21:47:44.711Z,13.77
2022-12-18T21:50:20.502Z,14.47
2022-12-18T21:52:50.423Z,14.90
2022-12-18T21:55:20.313Z,13.33
2022-12-18T21:57:50.316Z,14.55
2022-12-18T22:00:21.024Z,13.70
2022-12-18T22:03:15.554Z,12.63
2022-12-18T22:05:45.217Z,13.80
2022-12-18T22:08:15.192Z,14.60
2022-12-18T22:10:52.627Z,14.65
2022-12-18T22:13:28.596Z,13.13
2022-12-18T22:16:04.728Z,14.98
2022-12-18T22:18:34.680Z,14.53
2022-12-18T22:21:10.206Z,14.77
2022-12-18T22:23:39.960Z,14.82
2022-12-18T22:26:10.818Z,15.23
2022-12-18T22:28:53.019Z,15.83
2022-12-18T22:31:22.939Z,13.67
2022-12-18T22:33:53.874Z,16.23
2022-12-18T22:36:26.656Z,14.18
2022-12-18T22:38:56.449Z,14.48
2022-12-18T22:41:26.237Z,15.60
2022-12-18T22:43:58.649Z,15.50
2022-12-18T22:46:29.392Z,14.17
2022-12-18T22:48:59.151Z,15.67
2022-12-18T22:51:31.553Z,14.80
2022-12-18T22:54:01.500Z,15.40
2022-12-18T22:56:31.876Z,15.33
2022-12-18T22:59:01.803Z,15.10
2022-12-18T23:01:33.045Z,15.20
2022-12-18T23:04:05.079Z,15.03
2022-12-18T23:06:37.446Z,16.60
2022-12-18T23:09:07.192Z,15.35
2022-12-18T23:11:36.935Z,15.75
2022-12-18T23:14:06.703Z,16.37
2022-12-18T23:16:36.521Z,14.70
2022-12-18T23:19:06.804Z,15.68
2022-12-18T23:21:39.870Z,15.00
2022-12-18T23:24:10.593Z,16.38
2022-12-18T23:26:40.722Z,15.30
2022-12-18T23:29:10.905Z,15.57
2022-12-18T23:31:42.581Z,15.00
2022-12-18T23:34:15.579Z,15.80
2022-12-18T23:36:49.970Z,17.20
2022-12-18T23:39:29.412Z,15.52
2022-12-18T23:42:00.393Z,15.07
2022-12-18T23:44:30.346Z,15.50
2022-12-18T23:47:00.152Z,16.90
2022-12-18T23:49:29.936Z,16.27
2022-12-18T23:52:02.423Z,16.83
2022-12-18T23:54:33.283Z,16.60
2022-12-18T23:57:03.817Z,16.50
2022-12-18T23:59:33.885Z,18.20
